Time;durP1;ratioP1;P1;durP2;ratioP2;P2;SDS_P1;SDS_P2;PMS_P1;PMS_P2;Temp;Humidity;BMP_temperature;BMP_pressure;BME280_temperature;BME280_humidity;BME280_pressure;Samples;Min_cycle;Max_cycle;Signal;HPM_P1;HPM_P2
2024/02/18 00:01:37;;;;;;;8.88;5.70;;;3.40;99.90;;;;;;5069776;28;20557;-59
2024/02/18 00:04:02;;;;;;;13.00;5.85;;;3.30;99.90;;;;;;5074889;28;20497;-59
2024/02/18 00:06:28;;;;;;;15.07;5.70;;;3.30;99.90;;;;;;5076533;28;20051;-59
2024/02/18 00:08:54;;;;;;;19.48;6.28;;;3.30;99.90;;;;;;5067205;28;20132;-59
2024/02/18 00:11:20;;;;;;;18.08;6.28;;;3.30;99.90;;;;;;5072551;28;20157;-57
2024/02/18 00:13:45;;;;;;;18.90;6.07;;;3.30;99.90;;;;;;5073318;28;20432;-57
2024/02/18 00:16:11;;;;;;;13.02;5.45;;;3.30;99.90;;;;;;5075070;28;20028;-58
2024/02/18 00:18:36;;;;;;;19.08;6.32;;;3.30;99.90;;;;;;5075451;28;20502;-58
2024/02/18 00:21:02;;;;;;;14.52;6.80;;;3.30;99.90;;;;;;5080847;28;20104;-58
2024/02/18 00:23:28;;;;;;;16.63;6.82;;;3.30;99.90;;;;;;5082182;28;20019;-58
2024/02/18 00:25:54;;;;;;;17.52;6.15;;;3.40;99.90;;;;;;5073302;28;20021;-58
2024/02/18 00:28:20;;;;;;;12.68;6.35;;;3.40;99.90;;;;;;5077658;28;20385;-58
2024/02/18 00:30:49;;;;;;;11.75;5.60;;;3.40;99.90;;;;;;5073977;28;20966;-57
2024/02/18 00:33:15;;;;;;;17.33;6.25;;;3.40;99.90;;;;;;5070313;28;20165;-57
2024/02/18 00:35:40;;;;;;;13.68;5.40;;;3.40;99.90;;;;;;5074409;28;20039;-57
2024/02/18 00:38:06;;;;;;;9.63;5.40;;;3.40;99.90;;;;;;5069931;28;20032;-57
2024/02/18 00:40:32;;;;;;;14.82;6.05;;;3.30;99.90;;;;;;5075835;28;20032;-57
2024/02/18 00:42:57;;;;;;;10.35;5.97;;;3.30;99.90;;;;;;5068033;28;20086;-57
2024/02/18 00:45:23;;;;;;;11.20;6.10;;;3.30;99.90;;;;;;5072858;28;20050;-57
2024/02/18 00:47:48;;;;;;;18.05;7.32;;;3.30;99.90;;;;;;5068063;28;20020;-57
2024/02/18 00:50:14;;;;;;;17.15;7.30;;;3.40;99.90;;;;;;5072883;28;20024;-57
2024/02/18 00:52:40;;;;;;;12.55;6.55;;;3.30;99.90;;;;;;5068025;28;20063;-57
2024/02/18 00:55:06;;;;;;;9.90;5.90;;;3.30;99.90;;;;;;5079451;28;20021;-57
2024/02/18 00:57:31;;;;;;;14.77;6.18;;;3.30;99.90;;;;;;5070295;28;20025;-57
2024/02/18 00:59:57;;;;;;;13.77;6.85;;;3.30;99.90;;;;;;5073680;28;20070;-57
2024/02/18 01:02:22;;;;;;;13.73;7.32;;;3.30;99.90;;;;;;5072162;28;20020;-57
2024/02/18 01:04:48;;;;;;;17.40;6.43;;;3.30;99.90;;;;;;5072076;28;20070;-57
2024/02/18 01:07:14;;;;;;;11.30;5.22;;;3.40;99.90;;;;;;5075780;28;20028;-58
2024/02/18 01:09:39;;;;;;;12.60;6.22;;;3.40;99.90;;;;;;5068154;28;20044;-58
2024/02/18 01:12:05;;;;;;;11.32;7.20;;;3.40;99.90;;;;;;5074144;28;20639;-58
2024/02/18 01:14:31;;;;;;;14.73;7.05;;;3.50;99.90;;;;;;5079715;28;20089;-58
2024/02/18 01:16:57;;;;;;;14.10;5.78;;;3.50;99.90;;;;;;5076899;28;20025;-58
2024/02/18 01:19:23;;;;;;;12.98;5.75;;;3.50;99.90;;;;;;5068235;28;20100;-58
2024/02/18 01:21:48;;;;;;;12.20;5.50;;;3.50;99.90;;;;;;5077010;28;20458;-58
2024/02/18 01:24:14;;;;;;;19.85;5.93;;;3.50;99.90;;;;;;5067053;28;20070;-57
2024/02/18 01:26:39;;;;;;;14.63;6.32;;;3.60;99.90;;;;;;5067555;28;20044;-58
2024/02/18 01:29:06;;;;;;;18.40;6.10;;;3.60;99.90;;;;;;5072028;28;20029;-58
2024/02/18 01:31:32;;;;;;;10.25;5.47;;;3.70;99.90;;;;;;5072003;28;20029;-58
2024/02/18 01:33:57;;;;;;;14.93;6.28;;;3.70;99.90;;;;;;5077202;28;20367;-58
2024/02/18 01:36:23;;;;;;;15.70;6.95;;;3.70;99.90;;;;;;5074423;28;20074;-58
2024/02/18 01:38:48;;;;;;;15.45;5.93;;;3.70;99.90;;;;;;5071954;28;20061;-58
2024/02/18 01:41:14;;;;;;;12.48;6.05;;;3.70;99.90;;;;;;5077851;28;20020;-58
2024/02/18 01:43:39;;;;;;;13.48;6.43;;;3.70;99.90;;;;;;5073542;28;20094;-57
2024/02/18 01:46:05;;;;;;;8.35;4.95;;;3.70;99.90;;;;;;5071003;28;20017;-58
2024/02/18 01:48:34;;;;;;;10.02;5.55;;;3.70;99.90;;;;;;5080199;28;20044;-58
2024/02/18 01:51:00;;;;;;;16.75;7.00;;;3.60;99.90;;;;;;5076065;28;20021;-58
2024/02/18 01:53:27;;;;;;;15.73;6.20;;;3.70;99.90;;;;;;5079312;28;20558;-57
2024/02/18 01:55:54;;;;;;;16.77;6.35;;;3.70;99.90;;;;;;5071768;28;20506;-58
2024/02/18 01:58:20;;;;;;;10.10;5.63;;;3.70;99.90;;;;;;5078576;28;20024;-58
2024/02/18 02:00:47;;;;;;;9.85;5.65;;;3.70;99.90;;;;;;5076014;28;20031;-58
2024/02/18 02:03:13;;;;;;;13.00;5.68;;;3.80;99.90;;;;;;5073179;28;20540;-58
2024/02/18 02:05:41;;;;;;;13.10;6.63;;;3.80;99.90;;;;;;5080985;28;20024;-58
2024/02/18 02:08:07;;;;;;;8.75;5.72;;;3.80;99.90;;;;;;5081100;28;20020;-58
2024/02/18 02:10:33;;;;;;;13.45;6.38;;;3.90;99.90;;;;;;5082028;28;20020;-58
2024/02/18 02:12:58;;;;;;;16.83;6.68;;;3.80;99.90;;;;;;5072943;28;20110;-58
2024/02/18 02:15:24;;;;;;;12.57;5.78;;;3.80;99.90;;;;;;5074307;28;20016;-58
2024/02/18 02:17:50;;;;;;;15.40;6.25;;;3.80;99.90;;;;;;5079055;28;20387;-58
2024/02/18 02:20:15;;;;;;;14.23;6.82;;;3.90;99.90;;;;;;5074960;28;20048;-58
2024/02/18 02:22:41;;;;;;;11.15;5.60;;;3.90;99.90;;;;;;5075218;28;20481;-58
2024/02/18 02:25:09;;;;;;;15.75;6.50;;;3.80;99.90;;;;;;5078519;28;20019;-58
2024/02/18 02:27:37;;;;;;;9.25;5.30;;;3.90;99.90;;;;;;5078909;28;20012;-58
2024/02/18 02:30:04;;;;;;;13.38;6.38;;;3.90;99.90;;;;;;5071341;28;20024;-58
2024/02/18 02:32:31;;;;;;;14.75;7.05;;;3.90;99.90;;;;;;5080332;28;20508;-58
2024/02/18 02:34:58;;;;;;;9.88;5.50;;;3.80;99.90;;;;;;5069888;28;20027;-58
2024/02/18 02:37:23;;;;;;;18.02;6.93;;;3.80;99.90;;;;;;5077971;28;20020;-57
2024/02/18 02:39:50;;;;;;;13.18;6.70;;;3.80;99.90;;;;;;5074491;28;20608;-57
2024/02/18 02:42:16;;;;;;;21.20;7.03;;;3.90;99.90;;;;;;5078046;28;20024;-57
2024/02/18 02:44:42;;;;;;;13.15;5.80;;;3.90;99.90;;;;;;5073676;28;20066;-58
2024/02/18 02:47:07;;;;;;;17.10;6.32;;;3.90;99.90;;;;;;5075119;28;20496;-57
2024/02/18 02:49:33;;;;;;;13.65;6.55;;;3.90;99.90;;;;;;5072588;28;20021;-57
2024/02/18 02:51:59;;;;;;;11.82;5.88;;;3.90;99.90;;;;;;5068884;28;20028;-58
2024/02/18 02:54:24;;;;;;;15.68;6.45;;;3.90;99.90;;;;;;5073921;28;20074;-58
2024/02/18 02:56:50;;;;;;;16.60;6.70;;;3.90;99.90;;;;;;5076086;28;20375;-58
2024/02/18 02:59:15;;;;;;;13.93;6.57;;;3.90;99.90;;;;;;5073469;28;20029;-58
2024/02/18 03:01:41;;;;;;;13.70;6.40;;;3.90;99.90;;;;;;5073367;28;20021;-57
2024/02/18 03:04:06;;;;;;;16.40;6.53;;;3.90;99.90;;;;;;5074321;28;20103;-58
2024/02/18 03:06:32;;;;;;;12.38;6.20;;;3.90;99.90;;;;;;5076523;28;20183;-58
2024/02/18 03:08:57;;;;;;;14.75;6.13;;;3.90;99.90;;;;;;5069834;28;20029;-58
2024/02/18 03:11:23;;;;;;;11.43;6.40;;;3.90;99.90;;;;;;5073189;28;20048;-58
2024/02/18 03:13:48;;;;;;;10.63;6.30;;;4.00;99.90;;;;;;5072413;28;20069;-58
2024/02/18 03:16:14;;;;;;;12.95;6.18;;;4.10;99.90;;;;;;5071883;28;20069;-58
2024/02/18 03:18:42;;;;;;;11.70;5.82;;;4.20;99.90;;;;;;5072178;28;20115;-58
2024/02/18 03:21:08;;;;;;;13.23;6.05;;;4.20;99.90;;;;;;5072644;28;20442;-58
2024/02/18 03:23:34;;;;;;;11.73;6.35;;;4.30;99.90;;;;;;5072535;28;20013;-58
2024/02/18 03:26:00;;;;;;;10.68;6.00;;;4.40;99.90;;;;;;5072333;28;20020;-58
2024/02/18 03:28:25;;;;;;;12.43;5.65;;;4.40;99.90;;;;;;5075326;28;20536;-58
2024/02/18 03:30:52;;;;;;;13.45;6.72;;;4.50;99.90;;;;;;5069024;28;20031;-58
2024/02/18 03:33:18;;;;;;;11.00;5.82;;;4.50;99.90;;;;;;5071517;28;20378;-58
2024/02/18 03:35:44;;;;;;;9.40;5.93;;;4.50;99.90;;;;;;5076659;28;20032;-58
2024/02/18 03:38:10;;;;;;;9.90;6.07;;;4.50;99.90;;;;;;5068641;28;20021;-58
2024/02/18 03:40:36;;;;;;;12.70;6.50;;;4.60;99.90;;;;;;5068897;28;20437;-58
2024/02/18 03:43:04;;;;;;;10.35;5.78;;;4.60;99.90;;;;;;5072527;28;20017;-58
2024/02/18 03:45:30;;;;;;;13.63;5.55;;;4.60;99.90;;;;;;5068842;28;20024;-58
2024/02/18 03:47:55;;;;;;;14.38;6.97;;;4.70;99.90;;;;;;5069090;28;20175;-58
2024/02/18 03:50:21;;;;;;;12.75;6.07;;;4.70;99.90;;;;;;5068232;28;20043;-58
2024/02/18 03:52:47;;;;;;;12.40;6.65;;;4.70;99.90;;;;;;5072345;28;20037;-58
2024/02/18 03:55:14;;;;;;;18.30;6.20;;;4.70;99.90;;;;;;5073175;28;20178;-58
2024/02/18 03:57:41;;;;;;;14.68;6.38;;;4.80;99.90;;;;;;5068943;28;20482;-58
2024/02/18 04:00:09;;;;;;;13.18;6.47;;;4.80;99.90;;;;;;5071678;28;20086;-58
2024/02/18 04:02:36;;;;;;;16.65;6.75;;;4.80;99.90;;;;;;5068425;28;20016;-58
2024/02/18 04:05:03;;;;;;;14.88;7.03;;;4.80;99.90;;;;;;5071687;28;20093;-58
2024/02/18 04:07:29;;;;;;;14.68;6.63;;;4.80;99.90;;;;;;5071757;28;20082;-58
2024/02/18 04:09:54;;;;;;;12.40;6.60;;;4.90;99.90;;;;;;5071648;28;20099;-58
2024/02/18 04:12:20;;;;;;;15.52;6.57;;;4.90;99.90;;;;;;5074435;28;20107;-58
2024/02/18 04:14:45;;;;;;;16.83;6.28;;;4.80;99.90;;;;;;5069862;28;20070;-58
2024/02/18 04:17:11;;;;;;;18.70;8.30;;;4.80;99.90;;;;;;5069447;28;20027;-58
2024/02/18 04:19:37;;;;;;;17.42;8.48;;;4.90;99.90;;;;;;5076615;28;20584;-58
2024/02/18 04:22:02;;;;;;;19.95;7.30;;;4.90;99.90;;;;;;5071354;28;20051;-58
2024/02/18 04:24:28;;;;;;;16.70;7.03;;;4.80;99.90;;;;;;5072362;28;20099;-58
2024/02/18 04:26:53;;;;;;;12.55;7.07;;;4.80;99.90;;;;;;5068241;28;20389;-58
2024/02/18 04:29:19;;;;;;;17.77;7.78;;;4.80;99.90;;;;;;5071389;28;20038;-58
2024/02/18 04:31:44;;;;;;;11.68;7.03;;;4.80;99.90;;;;;;5066830;28;20031;-58
2024/02/18 04:34:10;;;;;;;23.15;7.85;;;4.90;99.90;;;;;;5070521;28;20107;-58
2024/02/18 04:36:35;;;;;;;19.85;7.93;;;4.80;99.90;;;;;;5070837;28;20017;-58
2024/02/18 04:39:01;;;;;;;18.77;8.52;;;4.80;99.90;;;;;;5066637;28;20353;-58
2024/02/18 04:41:27;;;;;;;12.00;7.38;;;4.80;99.90;;;;;;5073452;28;20162;-58
2024/02/18 04:43:52;;;;;;;17.90;7.78;;;4.90;99.90;;;;;;5068168;28;20032;-58
2024/02/18 04:46:18;;;;;;;15.00;7.47;;;4.80;99.90;;;;;;5070533;28;20016;-58
2024/02/18 04:48:43;;;;;;;18.30;7.60;;;4.80;99.90;;;;;;5070650;28;20114;-58
2024/02/18 04:51:09;;;;;;;18.27;8.77;;;4.90;99.90;;;;;;5070770;28;20201;-58
2024/02/18 04:53:34;;;;;;;18.23;7.65;;;4.90;99.90;;;;;;5072939;28;20043;-58
2024/02/18 04:56:00;;;;;;;15.85;7.38;;;4.90;99.90;;;;;;5067628;28;20036;-58
2024/02/18 04:58:25;;;;;;;14.15;7.28;;;4.90;99.90;;;;;;5075486;28;20067;-58
2024/02/18 05:00:51;;;;;;;16.33;7.15;;;4.90;99.90;;;;;;5067850;28;20013;-58
2024/02/18 05:03:16;;;;;;;13.93;7.28;;;4.90;99.90;;;;;;5067637;28;20220;-58
2024/02/18 05:05:42;;;;;;;12.07;6.80;;;4.90;99.90;;;;;;5069894;28;20034;-58
2024/02/18 05:08:08;;;;;;;13.07;7.85;;;5.00;99.90;;;;;;5070665;28;20097;-58
2024/02/18 05:10:33;;;;;;;16.45;8.00;;;4.90;99.90;;;;;;5074847;28;20023;-58
2024/02/18 05:12:59;;;;;;;16.20;9.10;;;4.90;99.90;;;;;;5067768;28;20476;-58
2024/02/18 05:15:25;;;;;;;19.58;8.10;;;4.90;99.90;;;;;;5068764;28;20052;-58
2024/02/18 05:17:50;;;;;;;18.52;8.15;;;4.90;99.90;;;;;;5068661;28;20436;-58
2024/02/18 05:20:15;;;;;;;17.10;7.57;;;4.90;99.90;;;;;;5067533;28;20075;-58
2024/02/18 05:22:41;;;;;;;15.68;8.35;;;4.90;99.90;;;;;;5067765;28;20146;-58
2024/02/18 05:25:07;;;;;;;10.63;6.90;;;4.90;99.90;;;;;;5067228;28;20329;-58
2024/02/18 05:27:33;;;;;;;17.63;8.20;;;4.90;99.90;;;;;;5067143;28;20457;-58
2024/02/18 05:29:58;;;;;;;16.00;8.27;;;4.90;99.90;;;;;;5067334;28;20078;-58
2024/02/18 05:32:24;;;;;;;18.48;8.30;;;4.90;99.90;;;;;;5071858;28;20098;-58
2024/02/18 05:34:49;;;;;;;14.07;8.10;;;5.00;99.90;;;;;;5067898;28;20093;-58
2024/02/18 05:37:15;;;;;;;13.23;8.60;;;5.00;99.90;;;;;;5067855;28;20111;-58
2024/02/18 05:39:40;;;;;;;14.98;7.32;;;4.90;99.90;;;;;;5070961;28;20079;-58
2024/02/18 05:42:06;;;;;;;15.32;7.57;;;4.90;99.90;;;;;;5069228;28;20025;-58
2024/02/18 05:44:32;;;;;;;10.80;6.82;;;4.90;99.90;;;;;;5070964;28;20035;-58
2024/02/18 05:46:58;;;;;;;12.60;7.05;;;4.90;99.90;;;;;;5069523;28;20048;-58
2024/02/18 05:49:24;;;;;;;11.60;7.35;;;5.00;99.90;;;;;;5069400;28;20110;-58
2024/02/18 05:51:53;;;;;;;13.60;7.70;;;5.00;99.90;;;;;;5069017;28;20583;-58
2024/02/18 05:54:20;;;;;;;12.82;6.57;;;5.00;99.90;;;;;;5069091;28;20073;-58
2024/02/18 05:56:46;;;;;;;11.35;6.53;;;5.00;99.90;;;;;;5068939;28;20017;-58
2024/02/18 05:59:12;;;;;;;12.52;7.88;;;5.00;99.90;;;;;;5066512;28;20021;-58
2024/02/18 06:01:38;;;;;;;11.73;7.07;;;4.90;99.90;;;;;;5068653;28;20032;-59
2024/02/18 06:04:03;;;;;;;13.43;6.90;;;4.90;99.90;;;;;;5068622;28;20103;-59
2024/02/18 06:06:29;;;;;;;14.77;7.40;;;4.90;99.90;;;;;;5072507;28;20091;-59
2024/02/18 06:08:55;;;;;;;13.43;7.47;;;5.00;99.90;;;;;;5068580;28;20024;-59
2024/02/18 06:11:20;;;;;;;11.70;6.85;;;5.00;99.90;;;;;;5064420;28;20089;-59
2024/02/18 06:13:46;;;;;;;18.42;8.07;;;5.00;99.90;;;;;;5069047;28;20032;-59
2024/02/18 06:16:12;;;;;;;11.30;7.30;;;5.00;99.90;;;;;;5068180;28;20031;-59
2024/02/18 06:18:38;;;;;;;14.55;7.47;;;4.90;99.90;;;;;;5068354;28;20024;-59
2024/02/18 06:21:04;;;;;;;14.77;7.65;;;5.00;99.90;;;;;;5068362;28;20021;-59
2024/02/18 06:23:30;;;;;;;16.35;7.95;;;5.00;99.90;;;;;;5068526;28;20529;-59
2024/02/18 06:25:56;;;;;;;16.13;9.32;;;5.00;99.90;;;;;;5066874;28;20031;-59
2024/02/18 06:28:21;;;;;;;17.17;8.93;;;5.00;99.90;;;;;;5074430;28;20099;-59
2024/02/18 06:30:47;;;;;;;9.77;6.97;;;5.00;99.90;;;;;;5070086;28;20549;-59
2024/02/18 06:33:13;;;;;;;15.23;8.10;;;5.00;99.90;;;;;;5068703;28;20071;-59
2024/02/18 06:35:38;;;;;;;17.20;7.97;;;4.90;99.90;;;;;;5074417;28;20047;-59
2024/02/18 06:38:04;;;;;;;13.43;8.23;;;4.90;99.90;;;;;;5071435;28;20031;-59
2024/02/18 06:40:29;;;;;;;19.63;9.50;;;5.00;99.90;;;;;;5069034;28;20028;-59
2024/02/18 06:42:55;;;;;;;16.23;7.82;;;5.00;99.90;;;;;;5072456;28;20025;-60
2024/02/18 06:45:20;;;;;;;17.42;9.23;;;5.00;99.90;;;;;;5069370;28;20016;-60
2024/02/18 06:47:47;;;;;;;17.77;9.13;;;5.00;99.90;;;;;;5070745;28;20175;-60
2024/02/18 06:50:13;;;;;;;17.00;9.15;;;5.10;99.90;;;;;;5072708;28;20123;-60
2024/02/18 06:52:39;;;;;;;17.27;8.77;;;5.00;99.90;;;;;;5073072;28;20024;-60
2024/02/18 06:55:05;;;;;;;14.07;8.32;;;5.10;99.90;;;;;;5070099;28;20043;-60
2024/02/18 06:57:31;;;;;;;20.63;9.60;;;5.10;99.90;;;;;;5071770;28;20025;-59
2024/02/18 06:59:57;;;;;;;18.70;9.23;;;5.10;99.90;;;;;;5070858;28;20024;-59
2024/02/18 07:02:23;;;;;;;18.20;9.75;;;5.10;99.90;;;;;;5072682;28;20529;-60
2024/02/18 07:04:49;;;;;;;21.17;9.65;;;5.10;99.90;;;;;;5070823;28;20059;-60
2024/02/18 07:07:15;;;;;;;22.45;9.13;;;5.20;99.90;;;;;;5070766;28;20036;-59
2024/02/18 07:09:42;;;;;;;14.18;8.23;;;5.10;99.90;;;;;;5073076;28;20024;-59
2024/02/18 07:12:08;;;;;;;18.27;9.70;;;5.20;99.90;;;;;;5067152;28;20511;-60
2024/02/18 07:14:34;;;;;;;20.92;10.00;;;5.20;99.90;;;;;;5071632;28;20421;-59
2024/02/18 07:17:00;;;;;;;21.38;10.57;;;5.20;99.90;;;;;;5072003;28;20024;-60
2024/02/18 07:19:26;;;;;;;22.98;9.10;;;5.20;99.90;;;;;;5071570;28;20446;-60
2024/02/18 07:21:51;;;;;;;23.90;10.90;;;5.20;99.90;;;;;;5069591;28;20020;-59
2024/02/18 07:24:17;;;;;;;24.90;11.10;;;5.20;99.90;;;;;;5071417;28;20402;-60
2024/02/18 07:26:43;;;;;;;18.15;10.80;;;5.30;99.90;;;;;;5070173;28;20028;-60
2024/02/18 07:29:08;;;;;;;24.48;12.20;;;5.40;99.90;;;;;;5070844;28;20024;-58
2024/02/18 07:31:36;;;;;;;20.33;11.77;;;5.40;99.90;;;;;;5070420;28;20496;-57
2024/02/18 07:34:04;;;;;;;27.05;13.55;;;5.50;99.90;;;;;;5070057;28;20220;-58
2024/02/18 07:36:30;;;;;;;17.75;11.75;;;5.60;99.90;;;;;;5070630;28;20067;-58
2024/02/18 07:38:56;;;;;;;20.55;12.32;;;5.60;99.90;;;;;;5068228;28;20055;-62
2024/02/18 07:41:23;;;;;;;27.02;12.82;;;5.80;99.90;;;;;;5068723;28;20497;-58
2024/02/18 07:43:49;;;;;;;28.70;13.55;;;5.90;99.90;;;;;;5069574;28;20021;-58
2024/02/18 07:46:14;;;;;;;30.83;15.02;;;5.90;99.90;;;;;;5069406;28;20074;-58
2024/02/18 07:48:40;;;;;;;23.17;13.90;;;6.00;99.90;;;;;;5070213;28;20478;-58
2024/02/18 07:51:06;;;;;;;28.15;13.95;;;6.10;99.90;;;;;;5069791;28;20032;-58
2024/02/18 07:53:31;;;;;;;30.77;13.55;;;6.20;99.90;;;;;;5069538;28;20032;-58
2024/02/18 07:55:57;;;;;;;26.88;15.07;;;6.30;99.90;;;;;;5069000;28;20028;-58
2024/02/18 07:58:22;;;;;;;27.70;13.95;;;6.40;99.90;;;;;;5067670;28;20397;-58
2024/02/18 08:00:48;;;;;;;28.13;15.07;;;6.40;99.90;;;;;;5066910;28;20025;-58
2024/02/18 08:03:13;;;;;;;28.60;16.00;;;6.50;99.90;;;;;;5067413;28;20397;-58
2024/02/18 08:05:40;;;;;;;30.83;15.60;;;6.60;99.90;;;;;;5067422;28;20462;-58
2024/02/18 08:08:06;;;;;;;28.65;14.73;;;6.70;99.90;;;;;;5068531;28;20443;-57
2024/02/18 08:10:32;;;;;;;22.85;14.40;;;6.70;99.90;;;;;;5067381;28;20052;-58
2024/02/18 08:12:57;;;;;;;25.17;13.93;;;6.80;99.90;;;;;;5069027;28;20101;-58
2024/02/18 08:15:23;;;;;;;24.08;14.48;;;6.90;99.90;;;;;;5067900;28;20040;-58
2024/02/18 08:17:48;;;;;;;25.80;13.55;;;6.90;99.90;;;;;;5066799;28;20024;-58
2024/02/18 08:20:14;;;;;;;26.05;14.02;;;7.00;99.90;;;;;;5068828;28;20446;-58
2024/02/18 08:22:39;;;;;;;22.45;13.40;;;7.10;99.90;;;;;;5069675;28;20028;-58
2024/02/18 08:25:05;;;;;;;20.90;11.95;;;7.20;99.90;;;;;;5068010;28;20012;-58
2024/02/18 08:27:31;;;;;;;21.80;13.27;;;7.30;99.90;;;;;;5068941;28;20447;-58
2024/02/18 08:29:56;;;;;;;20.88;12.10;;;7.40;99.90;;;;;;5068060;28;20020;-58
2024/02/18 08:32:22;;;;;;;21.35;13.68;;;7.50;99.90;;;;;;5068740;28;20016;-58
2024/02/18 08:34:48;;;;;;;27.85;13.77;;;7.60;99.90;;;;;;5068523;28;20041;-58
2024/02/18 08:37:13;;;;;;;22.58;12.75;;;7.70;99.90;;;;;;5067707;28;20033;-58
2024/02/18 08:39:39;;;;;;;21.65;11.20;;;7.70;99.90;;;;;;5068201;28;20449;-58
2024/02/18 08:42:05;;;;;;;20.90;12.90;;;7.90;99.90;;;;;;5066672;28;20367;-58
2024/02/18 08:44:30;;;;;;;22.08;12.05;;;7.90;99.90;;;;;;5073617;28;20020;-58
2024/02/18 08:46:56;;;;;;;21.83;12.27;;;8.00;99.90;;;;;;5067969;28;20480;-58
2024/02/18 08:49:23;;;;;;;23.40;12.98;;;8.10;99.90;;;;;;5066949;28;20017;-59
2024/02/18 08:51:49;;;;;;;17.80;10.90;;;8.20;99.90;;;;;;5067577;28;20012;-58
2024/02/18 08:54:15;;;;;;;22.25;12.63;;;8.30;99.90;;;;;;5067403;28;20031;-58
2024/02/18 08:56:40;;;;;;;20.17;11.63;;;8.40;99.90;;;;;;5066517;28;20362;-58
2024/02/18 08:59:06;;;;;;;19.65;11.43;;;8.40;99.90;;;;;;5067561;28;20146;-58
2024/02/18 09:01:32;;;;;;;18.05;11.10;;;8.50;99.90;;;;;;5067447;28;20020;-58
2024/02/18 09:03:58;;;;;;;18.00;11.57;;;8.60;99.90;;;;;;5067672;28;20017;-58
2024/02/18 09:06:23;;;;;;;20.92;10.85;;;8.70;99.90;;;;;;5067545;28;20441;-58
2024/02/18 09:08:49;;;;;;;18.05;11.63;;;8.80;99.90;;;;;;5067193;28;20052;-58
2024/02/18 09:11:14;;;;;;;18.67;10.50;;;9.00;99.90;;;;;;5067845;28;20383;-58
2024/02/18 09:13:40;;;;;;;18.05;11.32;;;9.00;99.90;;;;;;5067727;28;20047;-59
2024/02/18 09:16:06;;;;;;;22.90;11.52;;;9.10;99.90;;;;;;5067403;28;20028;-58
2024/02/18 09:18:31;;;;;;;16.20;10.70;;;9.10;99.90;;;;;;5067246;28;20575;-58
2024/02/18 09:20:57;;;;;;;17.80;9.80;;;9.20;99.90;;;;;;5072093;28;20366;-58
2024/02/18 09:23:22;;;;;;;17.55;10.93;;;9.30;99.90;;;;;;5079334;28;20031;-58
2024/02/18 09:25:48;;;;;;;14.77;9.35;;;9.30;99.90;;;;;;5076608;28;20028;-58
2024/02/18 09:28:15;;;;;;;17.45;11.52;;;9.40;99.90;;;;;;5082742;28;20024;-58
2024/02/18 09:30:40;;;;;;;16.10;10.18;;;9.40;99.90;;;;;;5069922;28;20454;-58
2024/02/18 09:33:11;;;;;;;15.15;9.45;;;9.40;99.90;;;;;;5074162;28;20035;-58
2024/02/18 09:35:36;;;;;;;18.98;11.82;;;9.50;99.90;;;;;;5071153;28;20402;-58
2024/02/18 09:38:06;;;;;;;17.15;9.07;;;9.60;99.90;;;;;;5067398;28;20454;-58
2024/02/18 09:40:32;;;;;;;20.42;9.90;;;9.60;99.90;;;;;;5067243;28;20315;-58
2024/02/18 09:42:59;;;;;;;15.50;9.18;;;9.70;99.90;;;;;;5074927;28;20027;-58
2024/02/18 09:45:32;;;;;;;15.23;9.82;;;9.80;99.90;;;;;;5069325;28;20412;-58
2024/02/18 09:48:01;;;;;;;14.27;8.43;;;9.90;99.90;;;;;;5064361;28;20028;-58
2024/02/18 09:50:30;;;;;;;14.15;8.85;;;10.00;99.90;;;;;;5065932;28;20017;-58
2024/02/18 09:52:55;;;;;;;15.25;8.45;;;10.10;99.90;;;;;;5067027;28;20526;-58
2024/02/18 09:55:21;;;;;;;16.75;9.23;;;10.20;99.90;;;;;;5065782;28;20055;-58
2024/02/18 09:57:46;;;;;;;14.43;8.88;;;10.40;99.90;;;;;;5067096;28;20104;-58
2024/02/18 10:00:14;;;;;;;14.15;9.10;;;10.50;99.90;;;;;;5066772;28;20648;-58
2024/02/18 10:02:41;;;;;;;15.50;9.55;;;10.60;99.90;;;;;;5066695;28;20057;-58
2024/02/18 10:05:07;;;;;;;14.18;8.43;;;10.70;99.90;;;;;;5071617;28;20028;-58
2024/02/18 10:07:33;;;;;;;18.85;9.75;;;10.80;99.90;;;;;;5070625;28;20017;-58
2024/02/18 10:10:04;;;;;;;14.02;8.68;;;11.00;99.90;;;;;;5068835;28;20039;-58
2024/02/18 10:12:33;;;;;;;13.90;8.25;;;11.20;99.90;;;;;;5069228;28;20095;-58
2024/02/18 10:15:03;;;;;;;15.35;8.65;;;11.30;99.90;;;;;;5070215;28;20154;-58
2024/02/18 10:17:29;;;;;;;16.05;8.20;;;11.50;99.90;;;;;;5070263;28;20473;-58
2024/02/18 10:19:56;;;;;;;13.27;9.45;;;11.70;99.90;;;;;;5073245;28;20039;-58
2024/02/18 10:22:25;;;;;;;12.15;8.32;;;11.90;99.90;;;;;;5069724;28;20013;-58
2024/02/18 10:24:52;;;;;;;11.52;7.78;;;12.10;99.90;;;;;;5070575;28;20020;-58
2024/02/18 10:27:18;;;;;;;11.32;8.13;;;12.50;99.90;;;;;;5075845;28;20569;-58
2024/02/18 10:29:48;;;;;;;13.50;7.38;;;12.60;99.90;;;;;;5072970;28;20061;-58
2024/02/18 10:32:17;;;;;;;12.55;8.73;;;12.70;99.90;;;;;;5076092;28;20032;-58
2024/02/18 10:34:46;;;;;;;14.63;8.00;;;12.70;99.90;;;;;;5077524;28;20119;-58
2024/02/18 10:37:25;;;;;;;11.80;7.15;;;12.90;99.90;;;;;;5080191;28;20067;-58
2024/02/18 10:39:55;;;;;;;13.45;8.23;;;13.00;99.90;;;;;;5070446;28;20032;-59
2024/02/18 10:42:25;;;;;;;13.55;7.80;;;13.10;99.90;;;;;;5070496;28;20029;-58
2024/02/18 10:44:52;;;;;;;10.67;7.53;;;13.00;99.90;;;;;;5076986;28;20055;-58
2024/02/18 10:47:20;;;;;;;11.55;7.13;;;13.10;99.90;;;;;;5076855;28;20062;-58
2024/02/18 10:50:04;;;;;;;9.38;6.32;;;13.20;99.90;;;;;;5069828;28;20458;-59
2024/02/18 10:52:33;;;;;;;11.73;6.57;;;13.30;99.90;;;;;;5084823;28;20016;-59
2024/02/18 10:55:05;;;;;;;11.20;7.07;;;13.70;99.90;;;;;;5072867;28;20051;-59
2024/02/18 10:57:39;;;;;;;12.07;6.82;;;13.90;99.90;;;;;;5080011;28;20293;-59
2024/02/18 11:00:10;;;;;;;12.15;7.75;;;14.00;99.90;;;;;;5063235;28;20012;-59
2024/02/18 11:02:55;;;;;;;11.48;6.80;;;13.80;99.90;;;;;;5069910;28;20025;-59
2024/02/18 11:05:21;;;;;;;8.10;6.13;;;13.80;99.90;;;;;;5087779;28;20020;-59
2024/02/18 11:07:47;;;;;;;13.45;6.80;;;13.80;99.90;;;;;;5072040;28;20389;-59
2024/02/18 11:10:14;;;;;;;13.15;7.07;;;13.90;99.90;;;;;;5082588;28;20290;-59
2024/02/18 11:12:43;;;;;;;12.57;6.88;;;14.30;99.90;;;;;;5075727;28;20409;-58
2024/02/18 11:15:13;;;;;;;10.18;5.57;;;14.50;99.90;;;;;;5081119;28;20042;-59
2024/02/18 11:17:40;;;;;;;9.50;6.72;;;14.80;99.90;;;;;;5085502;28;20032;-59
2024/02/18 11:20:09;;;;;;;9.15;5.45;;;15.60;99.90;;;;;;5073969;28;20358;-59
2024/02/18 11:22:35;;;;;;;7.30;4.53;;;16.10;99.90;;;;;;5086356;28;20547;-59
2024/02/18 11:25:06;;;;;;;6.95;4.50;;;17.00;99.90;;;;;;5072404;28;20028;-59
2024/02/18 11:27:33;;;;;;;6.25;4.10;;;17.70;97.30;;;;;;5079594;28;20489;-59
2024/02/18 11:29:59;;;;;;;7.30;4.38;;;18.30;96.30;;;;;;5079296;28;20031;-59
2024/02/18 11:32:25;;;;;;;5.88;3.95;;;18.20;94.40;;;;;;5087108;28;20100;-59
2024/02/18 11:34:51;;;;;;;8.25;4.13;;;18.60;93.10;;;;;;5078077;28;20094;-59
2024/02/18 11:37:34;;;;;;;5.43;3.85;;;18.60;92.40;;;;;;5081230;28;20021;-60
2024/02/18 11:40:08;;;;;;;6.22;4.25;;;19.40;91.50;;;;;;5085599;28;20034;-60
2024/02/18 11:42:38;;;;;;;5.35;3.58;;;19.50;92.10;;;;;;5078789;28;20401;-60
2024/02/18 11:45:20;;;;;;;4.47;3.10;;;19.70;91.70;;;;;;5065496;28;20383;-60
2024/02/18 11:47:47;;;;;;;4.45;3.47;;;20.50;90.00;;;;;;5077164;28;20297;-60
2024/02/18 11:50:13;;;;;;;3.92;2.80;;;20.00;88.20;;;;;;5069006;28;20090;-59
2024/02/18 11:52:45;;;;;;;4.78;2.67;;;20.00;86.10;;;;;;5082433;28;20104;-59
2024/02/18 11:55:16;;;;;;;5.55;3.30;;;19.60;87.70;;;;;;5085764;28;20439;-59
2024/02/18 11:57:42;;;;;;;3.33;2.88;;;19.80;87.70;;;;;;5084119;28;20473;-59
2024/02/18 12:00:12;;;;;;;3.92;2.45;;;19.30;87.80;;;;;;5073731;28;20020;-59
2024/02/18 12:02:39;;;;;;;9.13;3.75;;;19.00;87.80;;;;;;5068893;28;20024;-59
2024/02/18 12:05:06;;;;;;;3.42;2.15;;;19.00;90.00;;;;;;5062526;28;20066;-59
2024/02/18 12:07:33;;;;;;;3.30;2.03;;;18.70;86.80;;;;;;5068744;28;20435;-59
2024/02/18 12:09:59;;;;;;;3.55;2.20;;;18.30;86.00;;;;;;5084469;28;20024;-59
2024/02/18 12:12:26;;;;;;;5.03;2.60;;;17.80;87.30;;;;;;5078610;28;20538;-60
2024/02/18 12:14:55;;;;;;;3.60;1.90;;;17.50;89.30;;;;;;5076277;28;20063;-59
2024/02/18 12:17:21;;;;;;;4.45;2.40;;;17.30;90.10;;;;;;5078552;28;20111;-59
2024/02/18 12:19:47;;;;;;;4.82;2.67;;;17.00;90.50;;;;;;5075649;28;20065;-59
2024/02/18 12:22:29;;;;;;;5.82;3.42;;;16.80;90.50;;;;;;5073493;28;20420;-59
2024/02/18 12:24:58;;;;;;;4.72;3.00;;;16.30;91.50;;;;;;5068333;28;20044;-59
2024/02/18 12:27:24;;;;;;;5.53;3.38;;;15.90;92.60;;;;;;5084785;28;20486;-59
2024/02/18 12:29:52;;;;;;;7.00;3.50;;;15.50;93.00;;;;;;5075082;28;20020;-59
2024/02/18 12:32:18;;;;;;;4.80;3.65;;;15.40;93.60;;;;;;5073201;28;20103;-59
2024/02/18 12:34:46;;;;;;;5.15;3.35;;;15.20;93.80;;;;;;5068578;28;20043;-59
2024/02/18 12:37:12;;;;;;;6.70;3.78;;;15.10;94.70;;;;;;5067942;28;20032;-59
2024/02/18 12:39:38;;;;;;;7.25;3.80;;;14.80;94.30;;;;;;5068067;28;20555;-59
2024/02/18 12:42:05;;;;;;;4.65;3.53;;;14.50;95.10;;;;;;5074403;28;20111;-59